Knob Lick, Kentucky
Current Conditions -  °F | °C
As of 3:35 AM on Saturday 20 Dec 2014 (Local Time) from KGLW Reporting Station
Overcast Overcast  
Wind Chill: 30°   Ceiling: 4500
Heat Index: 30°   Visibility: 7mi
Dew Point: 25°   Wind: 3mph
Humidity: 82%   Direction: 10°N
Pressure: 30.23"   Gusts: NA
Location:  37.08°N, 85.69°W
Report Text: KGLW 200935Z AUTO 01003KT 7SM BKN045 OVC090 M01/M04 A3023 RMK AO2 T10111038
Loading
Personal Weather Stations






























Interactive Weather Map New forecast layout! Learn more

10-Day Weather Forecast

Advertisements
Track Severe Weather on mobile